createdAt,value
2019-02-26T00:02:59.275Z,13.57
2019-02-26T00:08:51.803Z,15.17
2019-02-26T00:14:47.526Z,13.99
2019-02-26T00:20:41.388Z,14.6
2019-02-26T00:26:36.230Z,16.83
2019-02-26T00:32:31.910Z,19.73
2019-02-26T00:38:26.021Z,14.47
2019-02-26T00:44:21.173Z,15.02
2019-02-26T00:50:16.587Z,14.34
2019-02-26T00:56:11.043Z,16.31
2019-02-26T01:02:06.045Z,16.38
2019-02-26T01:08:01.021Z,18.03
2019-02-26T01:13:57.334Z,19.02
2019-02-26T01:19:51.043Z,16.29
2019-02-26T01:25:46.045Z,17.63
2019-02-26T01:31:41.028Z,16.49
2019-02-26T01:37:36.551Z,17.12
2019-02-26T01:43:31.067Z,16.77
2019-02-26T01:49:27.945Z,19.45
2019-02-26T01:55:22.897Z,17.1
2019-02-26T02:01:16.737Z,28.81
2019-02-26T02:07:11.079Z,16.4
2019-02-26T02:13:07.074Z,18.53
2019-02-26T02:19:01.114Z,14.81
2019-02-26T02:24:56.091Z,17.71
2019-02-26T02:30:51.102Z,14.86
2019-02-26T02:36:46.090Z,17.6
2019-02-26T02:42:43.088Z,16.35
2019-02-26T02:48:36.134Z,14.66
2019-02-26T02:54:31.120Z,15.67
2019-02-26T03:00:28.120Z,14.59
2019-02-26T03:06:21.198Z,15.34
2019-02-26T03:12:16.133Z,13.67
2019-02-26T03:18:12.354Z,14.68
2019-02-26T03:24:07.994Z,16.49
2019-02-26T03:30:01.870Z,16.19
2019-02-26T03:35:56.145Z,14.31
2019-02-26T03:41:53.284Z,18.91
2019-02-26T03:47:46.174Z,17.6
2019-02-26T03:53:41.779Z,14.79
2019-02-26T03:59:36.178Z,14.43
2019-02-26T04:05:31.199Z,15.65
2019-02-26T04:11:27.717Z,15.5
2019-02-26T04:17:23.703Z,15.03
2019-02-26T04:23:18.753Z,15.86
2019-02-26T04:29:11.202Z,19.07
2019-02-26T04:35:06.224Z,13.2
2019-02-26T04:41:02.929Z,11.1
2019-02-26T04:46:57.103Z,12.87
2019-02-26T04:52:51.231Z,11.23
2019-02-26T04:58:47.775Z,10.29
2019-02-26T05:04:42.094Z,13.77
2019-02-26T05:10:36.255Z,11.03
2019-02-26T05:16:32.553Z,9.18
2019-02-26T05:22:28.246Z,11.18
2019-02-26T05:28:21.268Z,11.93
2019-02-26T05:34:17.959Z,11.5
2019-02-26T05:40:13.201Z,12.55
2019-02-26T05:46:06.271Z,14.76
2019-02-26T05:52:02.055Z,10.78
2019-02-26T05:57:56.295Z,11.42
2019-02-26T06:03:51.852Z,11.16
2019-02-26T06:09:48.181Z,9.2
2019-02-26T06:15:41.317Z,11.01
2019-02-26T06:21:39.577Z,11.53
2019-02-26T06:27:31.319Z,9.77
2019-02-26T06:33:26.321Z,12.73
2019-02-26T06:39:22.569Z,14.94
2019-02-26T06:45:16.835Z,10.83
2019-02-26T06:51:11.384Z,9.89
2019-02-26T06:57:06.390Z,11.61
2019-02-26T07:03:02.619Z,10.41
2019-02-26T07:08:56.342Z,12.54
2019-02-26T07:14:53.003Z,9.84
2019-02-26T07:20:47.404Z,11.52
2019-02-26T07:26:43.434Z,10.15
2019-02-26T07:32:38.228Z,9.32
2019-02-26T07:38:40.492Z,8.13
2019-02-26T07:44:28.320Z,8.57
2019-02-26T07:50:21.381Z,7.87
2019-02-26T07:56:16.388Z,10.67
2019-02-26T08:02:13.154Z,7.64
2019-02-26T08:08:06.378Z,12.18
2019-02-26T08:14:01.574Z,18.62
2019-02-26T08:19:56.443Z,5.42
2019-02-26T08:25:52.354Z,6.74
2019-02-26T08:31:47.392Z,6.6
2019-02-26T08:37:41.450Z,6.33
2019-02-26T08:43:36.426Z,6.46
2019-02-26T08:49:31.441Z,3.7
2019-02-26T08:55:26.423Z,3.01
2019-02-26T09:01:21.458Z,2.71
2019-02-26T09:07:17.228Z,3.37
2019-02-26T09:13:13.483Z,5.69
2019-02-26T09:19:06.454Z,4.37
2019-02-26T09:25:02.159Z,3.22
2019-02-26T09:30:58.871Z,3.4
2019-02-26T09:36:52.925Z,2.53
2019-02-26T09:42:49.334Z,5.19
2019-02-26T09:48:43.286Z,4.66
2019-02-26T09:54:38.424Z,6.51
2019-02-26T10:00:31.507Z,22.95
2019-02-26T10:06:26.496Z,5.46
2019-02-26T10:12:21.516Z,2.91
2019-02-26T10:18:16.539Z,1.9
2019-02-26T10:24:11.535Z,2.23
2019-02-26T10:30:08.307Z,2.2
2019-02-26T10:36:03.345Z,4.58
2019-02-26T10:41:56.541Z,3.9
2019-02-26T10:47:53.495Z,3.11
2019-02-26T10:53:46.557Z,4.18
2019-02-26T10:59:42.987Z,1.88
2019-02-26T11:05:37.667Z,2.44
2019-02-26T11:11:32.876Z,2.05
2019-02-26T11:17:28.761Z,7.59
2019-02-26T11:23:30.258Z,3.17
2019-02-26T11:29:16.611Z,3.29
2019-02-26T11:35:11.598Z,3
2019-02-26T11:41:06.608Z,2.9
2019-02-26T11:47:01.608Z,4.61
2019-02-26T11:52:56.588Z,2.86
2019-02-26T11:58:51.636Z,2.7
2019-02-26T12:04:46.621Z,6.11
2019-02-26T12:10:41.609Z,3.94
2019-02-26T12:16:36.652Z,3.48
2019-02-26T12:22:31.688Z,2.69
2019-02-26T12:28:28.279Z,3.91
2019-02-26T12:34:23.600Z,1.89
2019-02-26T12:40:19.298Z,2.2
2019-02-26T12:46:11.648Z,4.16
2019-02-26T12:52:06.658Z,2.58
2019-02-26T12:58:01.661Z,2.55
2019-02-26T13:03:56.654Z,2.25
2019-02-26T13:09:54.914Z,3.48
2019-02-26T13:15:46.666Z,3.19
2019-02-26T13:21:42.957Z,4.64
2019-02-26T13:27:38.640Z,2.37
2019-02-26T13:33:35.047Z,2.71
2019-02-26T13:39:32.876Z,1.95
2019-02-26T13:45:21.743Z,2.88
2019-02-26T13:51:16.741Z,2.08
2019-02-26T13:57:11.737Z,3.24
2019-02-26T14:03:06.716Z,2.94
2019-02-26T14:09:01.745Z,5
2019-02-26T14:14:56.758Z,3.86
2019-02-26T14:20:51.745Z,2.32
2019-02-26T14:26:46.736Z,2.74
2019-02-26T14:32:41.763Z,2.42
2019-02-26T14:38:36.794Z,2.17
2019-02-26T14:44:31.751Z,4.38
2019-02-26T14:50:26.756Z,2.34
2019-02-26T14:56:21.764Z,2.9
2019-02-26T15:02:17.660Z,3.99
2019-02-26T15:08:11.786Z,4.5
2019-02-26T15:14:06.788Z,6.92
2019-02-26T15:20:01.832Z,2.87
2019-02-26T15:25:56.798Z,4.7
2019-02-26T15:31:51.796Z,4.12
2019-02-26T15:37:46.810Z,8.7
2019-02-26T15:43:41.850Z,4.62
2019-02-26T15:49:37.744Z,3.98
2019-02-26T15:55:31.833Z,6.34
2019-02-26T16:01:26.846Z,7.61
2019-02-26T16:07:21.831Z,6.19
2019-02-26T16:13:16.841Z,8.42
2019-02-26T16:19:11.852Z,5.62
2019-02-26T16:25:08.159Z,5.66
2019-02-26T16:31:01.854Z,12.67
2019-02-26T16:36:56.880Z,9.07
2019-02-26T16:42:51.885Z,8.85
2019-02-26T16:48:46.890Z,10.04
2019-02-26T16:54:41.909Z,14.3
2019-02-26T17:00:36.884Z,8.83
2019-02-26T17:06:31.934Z,8.97
2019-02-26T17:12:28.943Z,13.44
2019-02-26T17:18:21.909Z,18.65
2019-02-26T17:24:18.429Z,14.96
2019-02-26T17:30:11.918Z,11.04
2019-02-26T17:36:06.928Z,23.57
2019-02-26T17:42:01.943Z,13.65
2019-02-26T17:47:57.464Z,14.33
2019-02-26T17:53:51.948Z,17.92
2019-02-26T17:59:46.939Z,16.68
2019-02-26T18:05:50.812Z,17.53
2019-02-26T18:11:36.948Z,23.86
2019-02-26T18:17:31.961Z,17.04
2019-02-26T18:23:26.995Z,16.34
2019-02-26T18:29:25.245Z,16.81
2019-02-26T18:35:17.002Z,16.39
2019-02-26T18:41:11.988Z,16.5
2019-02-26T18:47:07.842Z,14.05
2019-02-26T18:53:01.995Z,14.03
2019-02-26T18:58:56.995Z,15.1
2019-02-26T19:04:52.063Z,14.41
2019-02-26T19:10:46.994Z,9.72
2019-02-26T19:16:42.036Z,14.6
2019-02-26T19:22:37.040Z,10.51
2019-02-26T19:28:32.027Z,13.51
2019-02-26T19:34:28.759Z,10.87
2019-02-26T19:40:22.067Z,12.14
2019-02-26T19:46:17.843Z,11.1
2019-02-26T19:52:12.055Z,13.49
2019-02-26T19:58:07.143Z,9.61
2019-02-26T20:04:02.061Z,10.92
2019-02-26T20:09:57.069Z,12.71
2019-02-26T20:15:54.610Z,16.38
2019-02-26T20:21:47.119Z,13.95
2019-02-26T20:27:42.086Z,11.69
2019-02-26T20:33:37.095Z,10.99
2019-02-26T20:39:32.085Z,9.17
2019-02-26T20:45:27.118Z,12.12
2019-02-26T20:51:22.107Z,9.88
2019-02-26T20:57:17.137Z,11.78
2019-02-26T21:03:12.130Z,11.75
2019-02-26T21:09:07.694Z,10.69
2019-02-26T21:15:02.120Z,8.43
2019-02-26T21:20:57.132Z,6.9
2019-02-26T21:26:52.804Z,7.92
2019-02-26T21:32:47.124Z,12.34
2019-02-26T21:38:42.133Z,9.78
2019-02-26T21:44:37.159Z,11.17
2019-02-26T21:50:32.198Z,8.33
2019-02-26T21:56:27.166Z,10.57
2019-02-26T22:02:22.256Z,7.57
2019-02-26T22:08:17.187Z,11.21
2019-02-26T22:14:12.262Z,8.25
2019-02-26T22:20:09.202Z,11.68
2019-02-26T22:26:02.193Z,9.86
2019-02-26T22:31:59.691Z,10.93
2019-02-26T22:37:52.230Z,11.13
2019-02-26T22:43:47.496Z,11.19
2019-02-26T22:49:42.208Z,11.09
2019-02-26T22:55:37.250Z,11.13
2019-02-26T23:01:36.195Z,11.12
2019-02-26T23:07:27.261Z,11.46
2019-02-26T23:13:22.252Z,9.41
2019-02-26T23:19:17.265Z,10.22
2019-02-26T23:25:12.237Z,8.03
2019-02-26T23:31:07.224Z,9.37
2019-02-26T23:37:02.240Z,8.05
2019-02-26T23:42:57.259Z,9.9
2019-02-26T23:48:52.263Z,8.93
2019-02-26T23:54:47.309Z,9.04
